createdAt,value
2019-04-11T00:00:01.438Z,8.75
2019-04-11T00:05:02.272Z,8.72
2019-04-11T00:10:01.185Z,8.68
2019-04-11T00:15:02.418Z,8.63
2019-04-11T00:20:02.148Z,8.61
2019-04-11T00:25:01.451Z,8.58
2019-04-11T00:30:01.911Z,8.54
2019-04-11T00:35:01.700Z,8.52
2019-04-11T00:40:01.820Z,8.55
2019-04-11T00:45:01.122Z,8.54
2019-04-11T00:50:01.118Z,8.53
2019-04-11T00:55:01.075Z,8.48
2019-04-11T01:00:01.357Z,8.46
2019-04-11T01:05:01.365Z,8.45
2019-04-11T01:10:01.100Z,8.44
2019-04-11T01:15:01.378Z,8.41
2019-04-11T01:20:01.477Z,8.38
2019-04-11T01:25:01.064Z,8.35
2019-04-11T01:30:02.164Z,8.35
2019-04-11T01:35:01.275Z,8.35
2019-04-11T01:40:01.404Z,8.35
2019-04-11T01:45:01.136Z,8.34
2019-04-11T01:50:01.147Z,8.34
2019-04-11T01:55:02.036Z,8.32
2019-04-11T02:00:01.987Z,8.27
2019-04-11T02:05:02.866Z,8.26
2019-04-11T02:10:02.509Z,8.25
2019-04-11T02:15:01.164Z,8.27
2019-04-11T02:20:01.273Z,8.28
2019-04-11T02:25:01.503Z,8.26
2019-04-11T02:30:01.341Z,8.24
2019-04-11T02:35:02.512Z,8.21
2019-04-11T03:20:13.215Z,7.79
2019-04-11T03:25:02.922Z,7.73
2019-04-11T03:30:02.986Z,7.71
2019-04-11T03:40:22.370Z,7.63
2019-04-11T03:45:20.518Z,7.58
2019-04-11T03:50:07.952Z,7.52
2019-04-11T03:55:03.729Z,7.39
2019-04-11T04:00:03.493Z,7.32
2019-04-11T04:05:01.416Z,7.19
2019-04-11T04:10:03.043Z,7.07
2019-04-11T04:15:03.456Z,7.07
2019-04-11T04:20:02.312Z,7.04
2019-04-11T04:25:01.377Z,6.98
2019-04-11T04:30:04.488Z,6.97
2019-04-11T04:35:01.758Z,6.97
2019-04-11T04:40:21.565Z,6.94
2019-04-11T04:45:02.771Z,6.91
2019-04-11T04:50:01.581Z,6.87
2019-04-11T04:55:02.157Z,6.85
2019-04-11T05:00:02.669Z,6.83
2019-04-11T05:05:03.577Z,6.78
2019-04-11T05:10:03.191Z,6.76
2019-04-11T05:15:01.479Z,6.73
2019-04-11T05:20:01.502Z,6.75
2019-04-11T05:25:01.927Z,6.74
2019-04-11T05:30:01.076Z,6.70
2019-04-11T05:35:01.130Z,6.69
2019-04-11T05:40:01.130Z,6.63
2019-04-11T05:45:01.106Z,6.58
2019-04-11T05:50:01.222Z,6.59
2019-04-11T05:55:01.244Z,6.55
2019-04-11T06:00:01.290Z,6.51
2019-04-11T06:05:02.712Z,6.52
2019-04-11T06:10:06.056Z,6.47
2019-04-11T06:15:02.005Z,6.48
2019-04-11T06:20:02.119Z,6.42
2019-04-11T06:25:01.318Z,6.39
2019-04-11T06:30:01.365Z,6.41
2019-04-11T06:35:01.891Z,6.45
2019-04-11T06:40:02.422Z,6.44
2019-04-11T06:45:02.118Z,6.48
2019-04-11T06:50:01.121Z,6.51
2019-04-11T06:55:02.502Z,6.49
2019-04-11T07:00:01.117Z,6.49
2019-04-11T07:05:02.405Z,6.57
2019-04-11T07:10:02.114Z,6.63
2019-04-11T07:15:02.441Z,6.68
2019-04-11T07:20:02.432Z,6.72
2019-04-11T07:25:01.950Z,6.86
2019-04-11T07:30:01.105Z,6.85
2019-04-11T07:35:02.269Z,6.88
2019-04-11T07:40:02.724Z,6.93
2019-04-11T07:45:01.169Z,7.07
2019-04-11T07:50:02.308Z,7.29
2019-04-11T07:55:02.411Z,7.41
2019-04-11T08:00:01.467Z,7.54
2019-04-11T08:05:02.389Z,7.40
2019-04-11T08:10:02.425Z,7.34
2019-04-11T08:15:01.561Z,7.33
2019-04-11T08:20:01.109Z,7.35
2019-04-11T08:25:01.175Z,7.21
2019-04-11T08:30:02.508Z,7.16
2019-04-11T08:35:01.984Z,7.13
2019-04-11T08:40:01.824Z,7.23
2019-04-11T08:45:01.110Z,7.25
2019-04-11T08:50:02.169Z,7.30
2019-04-11T08:55:02.201Z,7.35
2019-04-11T09:00:02.180Z,7.31
2019-04-11T09:05:06.903Z,7.19
2019-04-11T09:10:02.006Z,7.28
2019-04-11T09:15:02.112Z,7.27
2019-04-11T09:20:01.135Z,7.37
2019-04-11T09:25:01.435Z,7.35
2019-04-11T09:30:02.456Z,7.34
2019-04-11T09:35:01.851Z,7.22
2019-04-11T09:40:01.669Z,7.13
2019-04-11T09:45:01.464Z,7.04
2019-04-11T09:50:02.343Z,7.13
2019-04-11T09:55:01.414Z,7.30
2019-04-11T10:00:01.820Z,7.28
2019-04-11T10:05:02.696Z,7.17
2019-04-11T10:10:02.438Z,7.12
2019-04-11T10:15:03.007Z,7.19
2019-04-11T10:20:02.515Z,7.22
2019-04-11T10:25:01.132Z,7.23
2019-04-11T10:30:01.201Z,7.28
2019-04-11T10:35:01.936Z,7.26
2019-04-11T10:40:01.841Z,7.11
2019-04-11T10:45:02.581Z,7.23
2019-04-11T10:50:01.191Z,7.36
2019-04-11T10:55:01.380Z,7.34
2019-04-11T11:00:01.247Z,7.33
2019-04-11T11:05:01.175Z,7.37
2019-04-11T11:10:01.260Z,7.34
2019-04-11T11:15:01.117Z,7.32
2019-04-11T11:20:15.100Z,7.41
2019-04-11T11:25:02.299Z,7.46
2019-04-11T11:30:04.016Z,7.44
2019-04-11T11:35:01.233Z,7.39
2019-04-11T11:40:05.714Z,7.44
2019-04-11T11:45:02.423Z,7.49
2019-04-11T11:50:03.331Z,7.47
2019-04-11T11:55:02.195Z,7.47
2019-04-11T12:00:01.209Z,7.48
2019-04-11T12:05:02.489Z,7.47
2019-04-11T12:10:02.757Z,7.57
2019-04-11T12:15:01.551Z,7.70
2019-04-11T12:20:06.398Z,7.71
2019-04-11T12:25:01.089Z,7.76
2019-04-11T12:30:05.444Z,7.75
2019-04-11T12:35:02.193Z,7.77
2019-04-11T12:40:01.082Z,7.74
2019-04-11T12:45:01.437Z,7.71
2019-04-11T12:50:01.147Z,7.70
2019-04-11T12:55:01.105Z,7.56
2019-04-11T13:00:01.520Z,7.47
2019-04-11T13:05:01.066Z,7.53
2019-04-11T13:10:01.099Z,7.51
2019-04-11T13:15:01.108Z,7.33
2019-04-11T13:20:04.973Z,7.16
2019-04-11T13:25:01.075Z,7.17
2019-04-11T13:30:01.125Z,7.25
2019-04-11T13:35:01.492Z,7.24
2019-04-11T13:40:01.096Z,7.23
2019-04-11T13:45:01.152Z,7.21
2019-04-11T13:50:03.869Z,7.21
2019-04-11T13:55:01.067Z,7.14
2019-04-11T14:00:01.081Z,7.15
2019-04-11T14:05:01.112Z,7.19
2019-04-11T14:10:02.218Z,7.16
2019-04-11T14:15:01.259Z,7.19
2019-04-11T14:20:01.097Z,7.25
2019-04-11T14:25:02.476Z,7.30
2019-04-11T14:30:01.436Z,7.21
2019-04-11T14:35:05.587Z,7.15
2019-04-11T14:40:01.040Z,7.16
2019-04-11T14:45:01.064Z,7.11
2019-04-11T14:50:01.153Z,7.08
2019-04-11T14:55:01.098Z,6.94
2019-04-11T15:00:01.088Z,6.91
2019-04-11T15:05:01.087Z,6.88
2019-04-11T15:10:01.293Z,6.87
2019-04-11T15:15:01.486Z,6.90
2019-04-11T15:20:02.653Z,6.87
2019-04-11T15:25:01.101Z,6.88
2019-04-11T15:30:01.622Z,6.92
2019-04-11T15:35:01.515Z,6.91
2019-04-11T15:40:01.111Z,6.96
2019-04-11T15:45:01.159Z,6.97
2019-04-11T15:50:01.637Z,6.98
2019-04-11T15:55:02.429Z,6.92
2019-04-11T16:00:01.596Z,6.88
2019-04-11T16:05:02.021Z,6.91
2019-04-11T16:10:01.102Z,6.90
2019-04-11T16:15:01.169Z,6.84
2019-04-11T16:20:01.097Z,6.76
2019-04-11T16:25:01.058Z,6.74
2019-04-11T16:30:01.112Z,6.68
2019-04-11T16:35:01.105Z,6.68
2019-04-11T16:40:01.474Z,6.69
2019-04-11T16:45:01.048Z,6.64
2019-04-11T16:50:01.346Z,6.51
2019-04-11T16:55:01.071Z,6.47
2019-04-11T17:00:01.072Z,6.46
2019-04-11T17:05:01.562Z,6.32
2019-04-11T17:10:01.172Z,6.25
2019-04-11T17:15:01.728Z,6.26
2019-04-11T17:20:01.196Z,6.22
2019-04-11T17:25:01.049Z,6.16
2019-04-11T17:30:01.056Z,6.14
2019-04-11T17:35:01.967Z,6.12
2019-04-11T17:40:01.125Z,6.07
2019-04-11T17:45:01.449Z,6.02
2019-04-11T17:50:04.196Z,6.00
2019-04-11T17:55:01.191Z,5.97
2019-04-11T18:00:01.110Z,5.93
2019-04-11T18:05:01.183Z,5.92
2019-04-11T18:10:01.101Z,5.92
2019-04-11T18:15:02.364Z,5.90
2019-04-11T18:20:01.078Z,5.88
2019-04-11T18:25:01.472Z,5.84
2019-04-11T18:30:01.096Z,5.83
2019-04-11T18:35:02.402Z,5.81
2019-04-11T18:40:01.172Z,5.76
2019-04-11T18:45:01.144Z,5.72
2019-04-11T18:50:01.259Z,5.67
2019-04-11T18:55:01.070Z,5.60
2019-04-11T19:00:02.395Z,5.55
2019-04-11T19:05:02.270Z,5.55
2019-04-11T19:10:01.167Z,5.53
2019-04-11T19:15:01.165Z,5.52
2019-04-11T19:20:01.100Z,5.53
2019-04-11T19:25:01.692Z,5.51
2019-04-11T19:30:01.145Z,5.45
2019-04-11T19:35:01.218Z,5.41
2019-04-11T19:40:01.353Z,5.33
2019-04-11T19:45:02.941Z,5.36
2019-04-11T19:50:01.239Z,5.38
2019-04-11T19:55:04.723Z,5.36
2019-04-11T20:00:01.596Z,5.38
2019-04-11T20:05:01.162Z,5.36
2019-04-11T20:10:01.693Z,5.37
2019-04-11T20:15:04.642Z,5.37
2019-04-11T20:20:02.019Z,5.38
2019-04-11T20:25:01.390Z,5.38
2019-04-11T20:30:01.189Z,5.39
2019-04-11T20:35:01.301Z,5.40
2019-04-11T20:40:01.514Z,5.37
2019-04-11T20:45:01.253Z,5.37
2019-04-11T20:50:07.316Z,5.33
2019-04-11T20:55:01.169Z,5.33
2019-04-11T21:00:01.233Z,5.37
2019-04-11T21:05:01.306Z,5.43
2019-04-11T21:10:03.990Z,5.40
2019-04-11T21:15:01.474Z,5.39
2019-04-11T21:20:01.428Z,5.40
2019-04-11T21:25:01.161Z,5.36
2019-04-11T21:30:01.287Z,5.36
2019-04-11T21:35:02.311Z,5.35
2019-04-11T21:40:01.403Z,5.38
2019-04-11T21:45:01.137Z,5.47
2019-04-11T21:50:01.492Z,5.55
2019-04-11T21:55:01.353Z,5.64
2019-04-11T22:00:01.624Z,5.67
2019-04-11T22:05:01.553Z,5.69
2019-04-11T22:10:01.253Z,5.74
2019-04-11T22:15:01.549Z,5.73
2019-04-11T22:20:01.362Z,5.69
2019-04-11T22:25:01.259Z,5.67
2019-04-11T22:30:01.840Z,5.66
2019-04-11T22:35:01.339Z,5.66
2019-04-11T22:40:02.665Z,5.66
2019-04-11T22:45:01.260Z,5.66
2019-04-11T22:50:01.552Z,5.64
2019-04-11T22:55:01.242Z,5.57
2019-04-11T23:00:01.289Z,5.55
2019-04-11T23:05:01.325Z,5.55
2019-04-11T23:10:01.538Z,5.54
2019-04-11T23:15:01.291Z,5.51
2019-04-11T23:20:01.492Z,5.43
2019-04-11T23:25:01.089Z,5.40
2019-04-11T23:30:01.121Z,5.35
2019-04-11T23:35:01.455Z,5.30
2019-04-11T23:40:01.179Z,5.27
2019-04-11T23:45:01.114Z,5.24
2019-04-11T23:50:01.137Z,5.22
2019-04-11T23:55:01.410Z,5.22
